Time;durP1;ratioP1;P1;durP2;ratioP2;P2;SDS_P1;SDS_P2;PMS_P1;PMS_P2;Temp;Humidity;BMP_temperature;BMP_pressure;BME280_temperature;BME280_humidity;BME280_pressure;Samples;Min_cycle;Max_cycle;Signal;HPM_P1;HPM_P2
2020/12/03 00:00:06;;;;;;;;;46.80;39.90;;;;;1.76;68.74;101813.52;461811;118;386660;-73
2020/12/03 00:01:11;;;;;;;;;28.10;23.60;;;;;1.76;68.74;101813.52;462027;118;382637;-71
2020/12/03 00:02:16;;;;;;;;;35.00;29.70;;;;;1.72;69.33;101810.13;461059;118;384080;-71
2020/12/03 00:03:22;;;;;;;;;34.40;28.80;;;;;1.75;68.79;101814.44;452995;120;382546;-71
2020/12/03 00:04:26;;;;;;;;;35.80;27.80;;;;;1.77;69.09;101808.26;461731;118;383434;-70
2020/12/03 00:05:30;;;;;;;;;41.80;35.20;;;;;1.79;69.36;101803.83;462182;118;386106;-72
2020/12/03 00:06:38;;;;;;;;;39.40;35.00;;;;;1.78;68.74;101804.75;460890;118;385386;-74
2020/12/03 00:07:41;;;;;;;;;38.20;32.60;;;;;1.75;68.83;101810.06;451975;120;383045;-72
2020/12/03 00:08:46;;;;;;;;;37.20;34.60;;;;;1.75;68.83;101810.06;462187;118;384717;-73
2020/12/03 00:09:50;;;;;;;;;42.70;35.90;;;;;1.72;69.72;101815.37;461509;118;385483;-71
2020/12/03 00:10:54;;;;;;;;;41.60;34.10;;;;;1.75;69.62;101810.06;460905;118;387365;-73
2020/12/03 00:11:59;;;;;;;;;50.40;39.20;;;;;1.75;69.62;101810.06;460749;118;394441;-74
2020/12/03 00:13:09;;;;;;;;;49.80;40.00;;;;;1.75;68.92;101810.06;460209;118;387282;-74
2020/12/03 00:14:13;;;;;;;;;50.20;35.40;;;;;1.78;69.63;101814.38;460307;118;386980;-73
2020/12/03 00:15:17;;;;;;;;;45.60;34.60;;;;;1.81;69.87;101815.17;460851;118;386099;-73
2020/12/03 00:16:23;;;;;;;;;38.10;32.30;;;;;1.78;69.06;101810.00;460501;118;392480;-74
2020/12/03 00:17:27;;;;;;;;;42.00;32.50;;;;;1.74;69.54;101810.95;460822;118;385925;-72
2020/12/03 00:18:31;;;;;;;;;37.60;31.20;;;;;1.74;69.54;101810.95;460870;118;385516;-72
2020/12/03 00:19:35;;;;;;;;;39.00;33.60;;;;;1.77;69.91;101810.88;460612;118;385824;-73
2020/12/03 00:20:41;;;;;;;;;46.70;42.00;;;;;1.74;68.98;101807.45;460477;118;386251;-73
2020/12/03 00:21:46;;;;;;;;;39.60;32.80;;;;;1.74;69.86;101813.56;460885;118;385915;-73
2020/12/03 00:22:50;;;;;;;;;40.50;35.00;;;;;1.78;70.00;101810.00;460351;118;386187;-72
2020/12/03 00:23:54;;;;;;;;;37.20;32.20;;;;;1.78;70.00;101810.00;460855;118;384300;-72
2020/12/03 00:24:57;;;;;;;;;41.80;34.30;;;;;1.76;69.40;101805.65;460863;118;385836;-72
2020/12/03 00:26:01;;;;;;;;;38.60;36.50;;;;;1.77;69.69;101817.88;460846;118;386090;-72
2020/12/03 00:27:08;;;;;;;;;40.50;33.00;;;;;1.72;69.99;101810.13;460458;118;386791;-72
2020/12/03 00:28:12;;;;;;;;;35.90;31.00;;;;;1.72;69.99;101810.13;460422;118;383485;-72
2020/12/03 00:29:16;;;;;;;;;42.70;34.40;;;;;1.73;69.59;101814.45;460799;118;391996;-73
2020/12/03 00:30:21;;;;;;;;;41.60;34.50;;;;;1.72;69.44;101814.50;459863;118;384713;-73
2020/12/03 00:31:25;;;;;;;;;37.60;31.30;;;;;1.72;69.44;101814.50;460847;118;385019;-72
2020/12/03 00:32:29;;;;;;;;;30.10;25.70;;;;;1.75;69.80;101817.92;460910;118;384624;-72
2020/12/03 00:33:32;;;;;;;;;42.60;31.90;;;;;1.76;69.36;101810.89;460363;118;385930;-71
2020/12/03 00:34:36;;;;;;;;;42.90;32.70;;;;;1.73;70.58;101800.47;460327;118;389900;-72
2020/12/03 00:35:40;;;;;;;;;35.30;32.40;;;;;1.70;70.08;101809.27;460881;118;385602;-73
2020/12/03 00:36:44;;;;;;;;;36.40;29.90;;;;;1.73;70.87;101803.95;460633;118;383574;-72
2020/12/03 00:37:48;;;;;;;;;40.30;33.80;;;;;1.74;69.96;101810.95;460875;118;385325;-72
2020/12/03 00:38:52;;;;;;;;;39.80;31.80;;;;;1.78;69.01;101798.64;460443;118;385151;-72
2020/12/03 00:39:56;;;;;;;;;28.90;20.80;;;;;1.78;69.01;101798.64;460907;118;383734;-71
2020/12/03 00:41:00;;;;;;;;;40.10;33.70;;;;;1.77;70.25;101803.02;460394;118;392372;-71
2020/12/03 00:42:04;;;;;;;;;34.10;33.60;;;;;1.77;70.25;101803.02;460812;118;390524;-70
2020/12/03 00:43:07;;;;;;;;;35.90;30.90;;;;;1.78;70.11;101794.26;460887;118;384252;-73
2020/12/03 00:44:11;;;;;;;;;37.90;31.80;;;;;1.75;69.12;101799.56;460455;118;384004;-72
2020/12/03 00:45:15;;;;;;;;;36.90;33.50;;;;;1.72;69.41;101804.01;460372;118;383735;-72
2020/12/03 00:46:21;;;;;;;;;47.80;36.60;;;;;1.72;69.41;101804.01;460535;118;392474;-74
2020/12/03 00:47:25;;;;;;;;;46.70;35.20;;;;;1.67;69.51;101806.70;460374;118;386596;-72
2020/12/03 00:48:29;;;;;;;;;38.40;32.00;;;;;1.71;70.12;101808.38;460690;118;385295;-73
2020/12/03 00:49:33;;;;;;;;;45.70;39.20;;;;;1.73;70.17;101801.34;460697;118;385067;-74
2020/12/03 00:50:38;;;;;;;;;43.00;34.60;;;;;1.73;70.17;101801.34;460596;118;386450;-71
2020/12/03 00:51:42;;;;;;;;;45.60;36.20;;;;;1.78;70.76;101796.02;460794;118;387415;-72
2020/12/03 00:52:47;;;;;;;;;38.30;35.70;;;;;1.77;70.33;101803.02;460341;118;385767;-73
2020/12/03 00:53:51;;;;;;;;;37.80;31.50;;;;;1.77;70.33;101803.02;460866;118;382645;-73
2020/12/03 00:54:55;;;;;;;;;43.30;36.00;;;;;1.73;70.97;101796.09;460421;118;385237;-73
2020/12/03 00:55:59;;;;;;;;;47.00;38.40;;;;;1.73;70.97;101796.09;460883;118;387250;-73
2020/12/03 00:57:03;;;;;;;;;29.90;22.90;;;;;1.72;70.32;101804.01;460540;118;391047;-72
2020/12/03 00:58:07;;;;;;;;;40.10;27.80;;;;;1.64;70.95;101803.28;460687;118;384401;-73
2020/12/03 00:59:11;;;;;;;;;36.90;31.60;;;;;1.67;70.90;101803.22;460886;118;384531;-73
2020/12/03 01:00:17;;;;;;;;;48.50;37.50;;;;;1.67;70.90;101803.22;460536;118;386704;-72
2020/12/03 01:01:21;;;;;;;;;42.80;39.20;;;;;1.69;70.59;101799.70;460411;118;384272;-72
2020/12/03 01:02:25;;;;;;;;;43.10;35.00;;;;;1.67;71.18;101800.59;460789;118;386525;-72
2020/12/03 01:03:28;;;;;;;;;41.40;33.80;;;;;1.70;71.59;101800.53;460471;118;384382;-72
2020/12/03 01:04:32;;;;;;;;;28.40;25.40;;;;;1.72;71.11;101798.77;460943;118;384082;-72
2020/12/03 01:05:36;;;;;;;;;43.80;35.60;;;;;1.69;71.57;101798.83;460395;118;385329;-73
2020/12/03 01:06:44;;;;;;;;;48.30;37.50;;;;;1.68;71.70;101800.58;460132;118;387820;-72
2020/12/03 01:07:48;;;;;;;;;39.30;34.10;;;;;1.68;71.70;101800.58;460505;118;390552;-72
2020/12/03 01:08:52;;;;;;;;;41.90;34.30;;;;;1.68;71.30;101797.95;460713;118;385496;-72
2020/12/03 01:09:55;;;;;;;;;42.90;34.00;;;;;1.69;71.69;101798.83;460826;118;386118;-71
2020/12/03 01:10:59;;;;;;;;;39.70;29.30;;;;;1.67;71.71;101798.84;461166;118;386783;-72
2020/12/03 01:12:05;;;;;;;;;33.80;32.00;;;;;1.67;71.71;101798.84;461312;118;385401;-71
2020/12/03 01:13:08;;;;;;;;;46.60;34.80;;;;;1.65;71.89;101794.53;452300;120;386212;-70
2020/12/03 01:14:12;;;;;;;;;50.40;38.60;;;;;1.65;71.89;101794.53;462216;118;386523;-71
2020/12/03 01:15:16;;;;;;;;;48.30;40.20;;;;;1.68;72.95;101795.33;462111;118;393768;-71
2020/12/03 01:16:21;;;;;;;;;41.10;36.20;;;;;1.68;72.95;101795.33;461938;118;386610;-70
2020/12/03 01:17:25;;;;;;;;;40.70;33.90;;;;;1.70;72.65;101796.16;461283;118;390154;-71
2020/12/03 01:18:30;;;;;;;;;48.00;39.70;;;;;1.70;72.21;101793.53;453205;120;386180;-72
2020/12/03 01:19:34;;;;;;;;;41.80;31.90;;;;;1.73;71.80;101803.95;452565;120;384699;-70
2020/12/03 01:20:38;;;;;;;;;51.20;41.20;;;;;1.73;71.80;101803.95;462166;118;386613;-72
2020/12/03 01:21:41;;;;;;;;;42.80;37.00;;;;;1.75;71.99;101799.56;461294;118;385651;-70
2020/12/03 01:22:45;;;;;;;;;47.30;35.20;;;;;1.76;71.79;101798.66;453144;120;387487;-70
2020/12/03 01:23:50;;;;;;;;;36.40;29.70;;;;;1.76;71.79;101798.66;461919;118;383461;-71
2020/12/03 01:24:53;;;;;;;;;52.70;39.00;;;;;1.76;72.39;101806.52;461069;118;384949;-70
2020/12/03 01:25:57;;;;;;;;;48.40;39.90;;;;;1.81;71.89;101803.81;452690;120;388183;-70
2020/12/03 01:27:01;;;;;;;;;40.70;32.90;;;;;1.84;71.53;101804.62;462230;118;384255;-70
2020/12/03 01:28:05;;;;;;;;;53.80;41.70;;;;;1.85;71.34;101806.33;462183;118;387289;-71
2020/12/03 01:29:09;;;;;;;;;54.40;37.80;;;;;1.85;71.18;101805.49;460790;118;387831;-72
2020/12/03 01:30:15;;;;;;;;;46.40;40.00;;;;;1.85;71.18;101805.49;452468;120;387222;-71
2020/12/03 01:31:19;;;;;;;;;50.70;39.30;;;;;1.83;71.86;101808.12;462236;118;385807;-70
2020/12/03 01:32:22;;;;;;;;;46.30;39.90;;;;;1.83;71.86;101808.12;461251;118;385639;-71
2020/12/03 01:33:27;;;;;;;;;46.60;35.60;;;;;1.80;71.48;101813.44;453146;120;389334;-71
2020/12/03 01:34:31;;;;;;;;;51.30;41.90;;;;;1.79;72.91;101800.34;461877;118;386152;-71
2020/12/03 01:35:35;;;;;;;;;51.40;40.80;;;;;1.81;72.11;101803.81;462165;118;387307;-70
2020/12/03 01:36:40;;;;;;;;;34.60;27.30;;;;;1.82;72.72;101805.55;460351;118;386055;-70
2020/12/03 01:37:44;;;;;;;;;36.10;32.40;;;;;1.86;72.42;101807.20;453173;120;385348;-71
2020/12/03 01:38:48;;;;;;;;;53.90;39.50;;;;;1.86;72.19;101794.95;453087;120;394522;-73
2020/12/03 01:39:52;;;;;;;;;39.10;38.10;;;;;1.84;72.66;101791.51;462280;118;384447;-71
2020/12/03 01:40:55;;;;;;;;;43.60;37.80;;;;;1.82;72.65;101795.90;460973;118;385133;-70
2020/12/03 01:41:59;;;;;;;;;45.10;27.80;;;;;1.67;73.31;101777.86;453213;120;383958;-71
2020/12/03 01:43:03;;;;;;;;;55.50;40.70;;;;;1.67;73.31;101777.86;462203;118;386949;-71
2020/12/03 01:44:07;;;;;;;;;44.60;38.70;;;;;1.84;72.83;101807.25;462165;118;385300;-71
2020/12/03 01:45:46;;;;;;;;;57.50;40.70;;;;;1.84;72.73;101809.87;460844;118;387651;-70
2020/12/03 01:46:50;;;;;;;;;50.00;38.80;;;;;1.84;72.73;101809.87;452928;120;386331;-71
2020/12/03 01:47:54;;;;;;;;;49.70;38.50;;;;;1.86;72.80;101799.33;462213;118;386852;-69
2020/12/03 01:49:02;;;;;;;;;50.50;42.70;;;;;1.85;73.43;101798.45;462215;118;385225;-74
2020/12/03 01:50:06;;;;;;;;;45.60;38.80;;;;;1.89;73.60;101794.88;460602;118;386351;-72
2020/12/03 01:51:13;;;;;;;;;50.10;37.90;;;;;1.89;73.60;101794.88;452909;120;385634;-70
2020/12/03 01:52:17;;;;;;;;;52.10;40.90;;;;;1.87;74.11;101793.20;452936;120;386696;-70
2020/12/03 01:53:21;;;;;;;;;59.40;41.60;;;;;1.87;74.11;101793.20;462214;118;387350;-71
2020/12/03 01:54:25;;;;;;;;;58.50;43.40;;;;;1.89;73.44;101797.51;461253;118;388169;-73
2020/12/03 01:55:28;;;;;;;;;45.50;37.40;;;;;1.89;73.51;101792.27;453182;120;386801;-71
2020/12/03 01:56:52;;;;;;;;;49.70;37.60;;;;;1.85;73.64;101795.00;461839;118;388333;-73
2020/12/03 01:57:57;;;;;;;;;51.80;39.10;;;;;1.85;73.64;101795.00;461001;118;387577;-71
2020/12/03 01:59:00;;;;;;;;;36.80;29.30;;;;;1.79;74.13;101790.72;445895;122;389419;-71
2020/12/03 02:00:08;;;;;;;;;40.90;29.80;;;;;1.79;74.13;101790.72;462006;118;387177;-70
2020/12/03 02:01:13;;;;;;;;;41.80;35.10;;;;;1.83;73.46;101791.52;461595;118;386700;-70
2020/12/03 02:02:18;;;;;;;;;43.90;36.20;;;;;1.82;73.84;101788.03;461348;118;385021;-71
2020/12/03 02:03:22;;;;;;;;;39.30;31.00;;;;;1.85;73.39;101787.97;452442;120;385118;-72
2020/12/03 02:04:26;;;;;;;;;47.00;34.80;;;;;1.94;73.75;101793.05;461935;118;386651;-72
2020/12/03 02:05:30;;;;;;;;;39.20;36.70;;;;;1.94;73.75;101793.05;462151;118;385721;-71
2020/12/03 02:06:36;;;;;;;;;43.40;36.20;;;;;2.00;73.32;101795.54;461192;118;385908;-74
2020/12/03 02:07:40;;;;;;;;;44.20;35.00;;;;;2.00;72.39;101784.17;461951;118;384880;-72
2020/12/03 02:08:44;;;;;;;;;40.50;34.00;;;;;1.96;73.02;101783.38;462188;118;386042;-70
2020/12/03 02:09:48;;;;;;;;;46.10;39.80;;;;;1.91;74.08;101785.24;461364;118;385466;-73
2020/12/03 02:10:52;;;;;;;;;44.30;34.50;;;;;1.91;74.08;101785.24;453158;120;388086;-72
2020/12/03 02:11:56;;;;;;;;;46.40;37.40;;;;;1.92;73.88;101786.95;460802;118;387095;-70
2020/12/03 02:13:00;;;;;;;;;51.80;39.20;;;;;1.94;73.27;101776.44;460167;119;387124;-70
2020/12/03 02:14:05;;;;;;;;;48.20;39.60;;;;;1.93;73.98;101780.81;460220;119;386469;-71
2020/12/03 02:15:09;;;;;;;;;41.40;29.10;;;;;1.98;74.13;101785.95;459547;119;389252;-71
2020/12/03 02:16:14;;;;;;;;;49.50;41.50;;;;;1.98;73.17;101778.95;459614;119;385236;-71
2020/12/03 02:17:17;;;;;;;;;38.00;34.70;;;;;1.98;73.17;101778.95;460193;119;385319;-71
2020/12/03 02:18:21;;;;;;;;;37.70;30.50;;;;;1.94;72.93;101787.80;459750;119;385645;-73
2020/12/03 02:19:27;;;;;;;;;47.60;40.10;;;;;1.94;72.93;101787.80;459871;119;385062;-72
2020/12/03 02:20:32;;;;;;;;;53.80;36.20;;;;;1.92;73.59;101781.70;459855;119;386197;-71
2020/12/03 02:21:35;;;;;;;;;45.20;35.40;;;;;1.90;74.01;101785.26;460198;119;385919;-70
2020/12/03 02:22:39;;;;;;;;;47.30;38.50;;;;;1.87;74.27;101783.57;460121;119;386956;-72
2020/12/03 02:23:43;;;;;;;;;45.30;36.60;;;;;1.86;74.84;101786.21;460176;119;386364;-69
2020/12/03 02:24:47;;;;;;;;;45.80;36.90;;;;;1.79;74.23;101788.09;460203;119;385923;-70
2020/12/03 02:25:51;;;;;;;;;39.10;33.40;;;;;1.79;74.23;101788.09;460214;119;384182;-70
2020/12/03 02:26:55;;;;;;;;;50.70;35.70;;;;;1.82;73.47;101784.57;459840;119;385495;-70
2020/12/03 02:27:58;;;;;;;;;50.40;40.30;;;;;1.82;74.19;101782.78;460220;119;386202;-73
2020/12/03 02:29:02;;;;;;;;;44.80;33.40;;;;;1.83;73.77;101787.14;460173;119;386668;-71
2020/12/03 02:30:07;;;;;;;;;38.80;34.60;;;;;1.83;73.77;101787.14;459451;119;386954;-70
2020/12/03 02:31:11;;;;;;;;;49.40;34.90;;;;;1.83;73.85;101784.52;459961;119;387747;-69
2020/12/03 02:32:16;;;;;;;;;40.00;33.70;;;;;1.84;74.01;101782.77;460191;119;391049;-71
2020/12/03 02:33:20;;;;;;;;;50.60;40.90;;;;;1.84;74.01;101782.77;459992;119;386188;-72
2020/12/03 02:34:23;;;;;;;;;44.20;39.70;;;;;1.88;74.64;101784.44;460199;119;391329;-73
2020/12/03 02:35:27;;;;;;;;;48.00;38.30;;;;;1.90;73.96;101788.75;460138;119;385749;-71
2020/12/03 02:36:32;;;;;;;;;58.00;42.30;;;;;1.90;73.96;101788.75;459880;119;387505;-71
2020/12/03 02:37:36;;;;;;;;;46.90;37.40;;;;;1.94;73.85;101795.67;459704;119;386106;-70
2020/12/03 02:38:39;;;;;;;;;58.40;40.60;;;;;1.88;73.95;101787.06;459846;119;386794;-71
2020/12/03 02:39:43;;;;;;;;;44.60;37.00;;;;;1.88;73.95;101787.06;459881;119;386768;-71
2020/12/03 02:40:47;;;;;;;;;42.00;31.80;;;;;1.86;74.64;101791.45;460238;119;387897;-71
2020/12/03 02:41:51;;;;;;;;;46.30;35.40;;;;;1.86;74.64;101791.45;460147;119;386520;-72
2020/12/03 02:42:55;;;;;;;;;46.70;35.50;;;;;1.86;74.58;101789.70;460175;119;386078;-72
2020/12/03 02:43:59;;;;;;;;;49.50;36.50;;;;;1.86;74.58;101791.45;460123;119;387877;-71
2020/12/03 02:45:03;;;;;;;;;42.60;29.80;;;;;1.89;74.79;101789.64;460156;119;386994;-72
2020/12/03 02:46:07;;;;;;;;;51.90;41.50;;;;;1.94;74.37;101794.80;460042;119;385912;-79
2020/12/03 02:47:11;;;;;;;;;48.10;38.10;;;;;1.94;76.11;101785.18;459181;119;386448;-80
2020/12/03 02:48:15;;;;;;;;;44.10;34.90;;;;;1.89;75.05;101784.39;460843;118;386597;-79
2020/12/03 02:49:18;;;;;;;;;44.30;36.10;;;;;1.84;74.65;101788.88;461886;118;386136;-78
2020/12/03 02:50:22;;;;;;;;;50.80;41.00;;;;;1.81;75.33;101786.33;461470;118;385497;-81
2020/12/03 02:51:26;;;;;;;;;46.70;35.80;;;;;1.81;74.92;101782.83;461888;118;387554;-78
2020/12/03 02:52:30;;;;;;;;;46.90;36.60;;;;;1.84;74.98;101783.64;460456;119;387586;-80
2020/12/03 02:53:34;;;;;;;;;49.20;35.20;;;;;1.84;74.86;101788.02;460151;119;387750;-80
2020/12/03 02:54:38;;;;;;;;;49.60;39.50;;;;;1.80;75.06;101779.34;460600;119;386506;-79
2020/12/03 02:55:41;;;;;;;;;43.30;32.00;;;;;1.81;75.94;101788.95;460344;119;384875;-78
2020/12/03 02:56:46;;;;;;;;;50.10;39.80;;;;;1.81;76.37;101786.33;460001;119;386031;-79
2020/12/03 02:57:50;;;;;;;;;41.10;32.80;;;;;1.82;76.41;101792.44;460757;119;384213;-79
2020/12/03 02:58:54;;;;;;;;;40.60;32.00;;;;;1.80;74.89;101787.21;460638;119;386292;-79
2020/12/03 02:59:58;;;;;;;;;42.70;33.30;;;;;1.81;74.71;101785.45;460549;119;384747;-79
2020/12/03 03:01:02;;;;;;;;;41.20;31.10;;;;;1.83;75.64;101788.90;460373;119;385006;-79
2020/12/03 03:02:06;;;;;;;;;53.00;42.20;;;;;1.80;75.21;101792.45;460375;119;391892;-79
2020/12/03 03:03:09;;;;;;;;;50.90;41.60;;;;;1.82;75.59;101780.16;460404;119;385764;-78
2020/12/03 03:04:13;;;;;;;;;44.60;34.00;;;;;1.82;75.57;101779.33;459981;119;392295;-78
2020/12/03 03:05:17;;;;;;;;;43.20;34.10;;;;;1.85;75.67;101784.50;460441;119;385246;-78
2020/12/03 03:06:22;;;;;;;;;44.00;35.50;;;;;1.85;75.96;101774.85;460219;119;385485;-79
2020/12/03 03:07:25;;;;;;;;;45.90;37.60;;;;;1.85;75.57;101774.02;460428;119;386087;-79
2020/12/03 03:08:29;;;;;;;;;51.70;40.00;;;;;1.84;75.36;101774.90;460450;119;387643;-79
2020/12/03 03:09:33;;;;;;;;;38.70;32.20;;;;;1.84;75.36;101774.90;460001;119;387178;-79
2020/12/03 03:10:39;;;;;;;;;52.20;38.90;;;;;1.83;75.53;101775.78;459667;119;387558;-80
2020/12/03 03:11:43;;;;;;;;;42.80;34.20;;;;;1.83;75.94;101773.16;460312;119;393304;-78
2020/12/03 03:12:46;;;;;;;;;46.00;37.50;;;;;1.84;76.32;101765.27;461006;118;386308;-79
2020/12/03 03:13:50;;;;;;;;;45.30;34.30;;;;;1.85;75.47;101759.11;461209;118;385162;-79
2020/12/03 03:14:54;;;;;;;;;41.40;30.90;;;;;1.85;75.47;101759.11;461253;118;385222;-79
2020/12/03 03:15:58;;;;;;;;;48.00;38.70;;;;;1.85;76.01;101764.36;461089;118;386523;-79
2020/12/03 03:17:02;;;;;;;;;42.70;36.40;;;;;1.85;76.01;101764.36;461151;118;385238;-80
2020/12/03 03:18:06;;;;;;;;;46.00;36.30;;;;;1.84;75.57;101759.16;461275;118;385461;-79
2020/12/03 03:19:10;;;;;;;;;34.70;27.40;;;;;1.86;76.16;101766.09;460818;118;383305;-78
2020/12/03 03:20:14;;;;;;;;;41.00;34.40;;;;;1.91;76.02;101771.26;460440;118;385136;-77
2020/12/03 03:21:18;;;;;;;;;46.60;35.00;;;;;1.94;75.76;101779.06;460892;118;384958;-78
2020/12/03 03:22:22;;;;;;;;;40.80;34.40;;;;;1.93;75.61;101779.95;460924;118;391732;-78
2020/12/03 03:23:26;;;;;;;;;51.20;37.40;;;;;1.93;75.61;101779.95;460598;118;387430;-78
2020/12/03 03:24:30;;;;;;;;;45.80;35.70;;;;;1.85;75.87;101774.85;461032;118;387161;-77
2020/12/03 03:25:33;;;;;;;;;47.50;37.90;;;;;1.89;75.64;101770.41;460614;118;386513;-78
2020/12/03 03:26:38;;;;;;;;;40.40;35.40;;;;;1.87;75.66;101767.83;460497;118;383894;-77
2020/12/03 03:27:41;;;;;;;;;46.60;40.30;;;;;1.87;75.66;101767.83;460920;118;386774;-75
2020/12/03 03:28:45;;;;;;;;;47.60;41.10;;;;;1.93;76.15;101775.56;460414;118;385741;-78
2020/12/03 03:29:49;;;;;;;;;33.50;27.60;;;;;1.93;75.27;101774.70;460533;118;382866;-75
2020/12/03 03:30:53;;;;;;;;;56.40;45.10;;;;;1.93;75.27;101774.70;460443;118;386667;-75
2020/12/03 03:31:57;;;;;;;;;50.00;36.00;;;;;1.95;75.65;101775.52;460926;118;391830;-79
2020/12/03 03:33:01;;;;;;;;;58.30;45.20;;;;;1.96;76.01;101788.63;460921;118;384602;-78
2020/12/03 03:34:04;;;;;;;;;57.30;44.70;;;;;1.96;76.01;101788.63;460499;118;384774;-79
2020/12/03 03:35:08;;;;;;;;;59.30;44.70;;;;;1.97;75.43;101779.86;460435;118;384738;-79
2020/12/03 03:36:12;;;;;;;;;50.80;41.20;;;;;1.97;75.43;101779.86;460109;118;386167;-78
2020/12/03 03:37:16;;;;;;;;;59.40;42.90;;;;;1.97;76.02;101781.62;460873;118;392326;-77
2020/12/03 03:38:20;;;;;;;;;33.10;28.00;;;;;1.92;75.83;101780.83;460964;118;382367;-77
2020/12/03 03:39:25;;;;;;;;;50.80;40.50;;;;;1.92;75.83;101780.83;460668;118;386324;-78
2020/12/03 03:40:30;;;;;;;;;49.20;38.80;;;;;1.92;75.97;101778.20;443099;118;387128;-80
2020/12/03 03:41:34;;;;;;;;;51.80;38.50;;;;;1.93;75.41;101777.33;443357;123;386300;-87
2020/12/03 03:42:38;;;;;;;;;44.00;37.70;;;;;1.95;74.91;101781.63;443310;123;393078;-86
2020/12/03 03:43:42;;;;;;;;;45.70;36.80;;;;;1.96;75.52;101777.26;443327;123;385568;-85
2020/12/03 03:44:46;;;;;;;;;54.60;42.20;;;;;1.96;75.52;101777.26;443291;123;392833;-85
2020/12/03 03:45:50;;;;;;;;;44.30;37.60;;;;;1.96;75.63;101778.12;443294;123;386185;-86
2020/12/03 03:46:54;;;;;;;;;55.40;42.20;;;;;1.96;75.63;101778.12;442882;123;387686;-87
2020/12/03 03:47:59;;;;;;;;;52.20;41.00;;;;;2.07;75.31;101770.03;443407;123;386181;-87
2020/12/03 03:49:03;;;;;;;;;47.30;37.90;;;;;2.07;75.31;101770.03;443103;123;386391;-85
2020/12/03 03:50:07;;;;;;;;;44.20;38.30;;;;;2.07;75.22;101770.03;443110;123;385905;-87
2020/12/03 03:51:11;;;;;;;;;46.80;38.30;;;;;2.04;75.08;101768.31;443585;123;386794;-85
2020/12/03 03:52:15;;;;;;;;;55.60;41.60;;;;;2.02;75.68;101759.63;443744;120;387234;-86
2020/12/03 03:53:19;;;;;;;;;46.70;35.00;;;;;2.01;75.47;101763.13;443646;123;385803;-88
2020/12/03 03:54:23;;;;;;;;;49.50;41.50;;;;;2.01;75.47;101763.13;443035;123;392663;-85
2020/12/03 03:55:27;;;;;;;;;58.90;42.00;;;;;1.94;75.46;101766.81;443286;123;387814;-88
2020/12/03 03:56:32;;;;;;;;;34.70;26.70;;;;;1.95;75.70;101768.52;442772;123;384762;-85
2020/12/03 03:57:36;;;;;;;;;57.10;43.70;;;;;1.94;75.73;101768.57;443327;123;386016;-90
2020/12/03 03:58:40;;;;;;;;;52.80;43.40;;;;;1.92;76.58;101771.20;443012;123;386175;-87
2020/12/03 03:59:48;;;;;;;;;50.50;43.00;;;;;1.92;76.58;101771.20;443474;123;385843;-88
2020/12/03 04:00:51;;;;;;;;;57.60;43.60;;;;;1.95;75.62;101776.39;443055;123;392928;-87
2020/12/03 04:01:55;;;;;;;;;51.20;44.20;;;;;1.97;75.13;101769.37;443398;123;386428;-81
2020/12/03 04:02:58;;;;;;;;;42.70;38.10;;;;;1.97;75.13;101769.37;442887;123;393123;-82
2020/12/03 04:04:02;;;;;;;;;55.50;35.70;;;;;1.98;75.34;101775.45;442813;123;388523;-78
2020/12/03 04:05:06;;;;;;;;;53.40;39.60;;;;;1.98;75.34;101775.45;442858;123;387662;-80
2020/12/03 04:06:11;;;;;;;;;42.30;36.20;;;;;1.98;75.14;101771.07;442761;123;385815;-82
2020/12/03 04:07:14;;;;;;;;;51.70;38.70;;;;;1.98;75.14;101771.07;435043;126;387322;-75
2020/12/03 04:08:18;;;;;;;;;44.80;39.80;;;;;1.97;76.25;101766.75;435456;126;385276;-74
2020/12/03 04:09:22;;;;;;;;;48.50;37.30;;;;;1.97;76.25;101766.75;442855;123;394950;-76
2020/12/03 04:10:27;;;;;;;;;49.30;40.80;;;;;2.00;75.74;101769.30;443076;123;385192;-76
2020/12/03 04:11:31;;;;;;;;;56.50;41.90;;;;;2.00;75.92;101769.30;443304;123;388433;-78
2020/12/03 04:12:35;;;;;;;;;61.70;46.90;;;;;2.02;75.25;101770.12;443374;123;387347;-80
2020/12/03 04:13:39;;;;;;;;;56.60;41.50;;;;;2.00;74.93;101782.42;454958;120;386437;-75
2020/12/03 04:14:42;;;;;;;;;50.60;41.00;;;;;1.98;76.05;101776.32;453647;120;385680;-78
2020/12/03 04:15:46;;;;;;;;;60.60;41.10;;;;;2.02;75.47;101777.13;454996;120;386614;-78
2020/12/03 04:16:51;;;;;;;;;54.00;43.80;;;;;2.02;75.47;101777.13;453791;120;386325;-77
2020/12/03 04:17:54;;;;;;;;;52.40;38.50;;;;;2.03;75.65;101774.48;454054;120;388109;-77
2020/12/03 04:18:58;;;;;;;;;47.30;42.20;;;;;2.07;75.85;101770.87;455391;120;385956;-75
2020/12/03 04:20:02;;;;;;;;;52.90;43.50;;;;;2.07;75.85;101770.87;455411;120;386425;-76
2020/12/03 04:21:07;;;;;;;;;47.30;38.60;;;;;2.09;75.57;101771.72;454038;120;386715;-74
2020/12/03 04:22:11;;;;;;;;;38.20;27.40;;;;;2.10;74.98;101769.97;455138;120;386610;-74
2020/12/03 04:23:15;;;;;;;;;54.70;42.60;;;;;2.05;74.96;101772.67;455458;120;387016;-76
2020/12/03 04:24:19;;;;;;;;;47.80;42.00;;;;;2.05;75.42;101780.55;455502;120;386563;-75
2020/12/03 04:25:23;;;;;;;;;47.70;36.60;;;;;2.05;75.42;101780.55;455168;120;387209;-75
2020/12/03 04:26:28;;;;;;;;;43.60;33.20;;;;;2.02;74.61;101777.98;454926;120;383898;-75
2020/12/03 04:27:32;;;;;;;;;52.50;40.20;;;;;1.98;75.93;101784.19;454152;120;385085;-75
2020/12/03 04:28:36;;;;;;;;;51.30;41.20;;;;;1.98;75.93;101784.19;454781;120;385520;-75
2020/12/03 04:29:40;;;;;;;;;46.50;36.90;;;;;2.00;75.64;101790.29;454098;120;386128;-76
2020/12/03 04:30:44;;;;;;;;;46.90;40.50;;;;;2.00;75.98;101792.91;455479;120;384364;-75
2020/12/03 04:31:48;;;;;;;;;41.60;35.10;;;;;2.00;75.31;101789.42;454046;120;392634;-77
2020/12/03 04:32:52;;;;;;;;;45.60;36.60;;;;;1.98;75.07;101785.95;455422;120;385033;-76
2020/12/03 04:33:56;;;;;;;;;49.50;39.40;;;;;1.95;75.28;101786.02;453620;120;385499;-75
2020/12/03 04:34:59;;;;;;;;;43.90;36.00;;;;;1.97;74.77;101790.36;455036;120;386438;-75
2020/12/03 04:36:03;;;;;;;;;42.50;34.60;;;;;1.95;74.95;101792.13;454086;120;386721;-76
2020/12/03 04:37:07;;;;;;;;;47.10;37.50;;;;;1.95;74.95;101792.13;455373;120;386631;-75
2020/12/03 04:38:11;;;;;;;;;47.50;39.00;;;;;1.97;75.82;101792.98;453678;120;387484;-76
2020/12/03 04:39:15;;;;;;;;;48.30;35.00;;;;;1.99;75.68;101792.93;455467;120;386946;-76
2020/12/03 04:40:28;;;;;;;;;52.90;41.40;;;;;2.02;75.33;101791.11;453810;120;387229;-77
2020/12/03 04:41:31;;;;;;;;;57.50;41.60;;;;;2.08;75.19;101797.98;455138;120;387362;-76
2020/12/03 04:42:36;;;;;;;;;55.40;42.40;;;;;2.10;75.60;101797.08;454051;120;386892;-76
2020/12/03 04:43:41;;;;;;;;;53.50;41.80;;;;;2.10;75.60;101797.08;454693;120;390980;-76
2020/12/03 04:44:45;;;;;;;;;56.40;43.70;;;;;2.11;75.56;101790.91;453658;120;385147;-77
2020/12/03 04:45:51;;;;;;;;;63.40;41.90;;;;;2.11;75.56;101790.91;455422;120;387220;-76
2020/12/03 04:47:02;;;;;;;;;60.60;41.30;;;;;2.12;75.41;101795.27;453818;120;388252;-75
2020/12/03 04:48:39;;;;;;;;;63.90;48.20;;;;;2.11;75.85;101793.53;455109;120;385891;-75
2020/12/03 04:49:47;;;;;;;;;55.80;45.20;;;;;2.11;76.06;101796.16;432512;126;386644;-77
2020/12/03 04:50:54;;;;;;;;;58.60;44.40;;;;;2.11;76.06;101796.16;453818;120;392418;-76
2020/12/03 04:52:23;;;;;;;;;57.60;45.10;;;;;2.09;75.63;101795.34;453826;120;386617;-76
2020/12/03 04:53:38;;;;;;;;;57.10;43.40;;;;;2.12;74.93;101799.65;455152;120;387567;-77